Time;durP1;ratioP1;P1;durP2;ratioP2;P2;SDS_P1;SDS_P2;PMS_P1;PMS_P2;Temp;Humidity;BMP_temperature;BMP_pressure;BME280_temperature;BME280_humidity;BME280_pressure;Samples;Min_cycle;Max_cycle;Signal;HPM_P1;HPM_P2
2023/04/10 00:03:33;;;;;;;10.10;9.13;;;9.10;31.60;;;;;;10332835;28;20227;-66
2023/04/10 00:08:37;;;;;;;10.50;9.50;;;8.90;32.00;;;;;;10333343;28;20236;-66
2023/04/10 00:13:40;;;;;;;8.33;7.60;;;8.80;32.00;;;;;;10333810;28;20226;-66
2023/04/10 00:18:44;;;;;;;6.73;6.13;;;8.80;32.20;;;;;;10340430;28;20802;-67
2023/04/10 00:23:47;;;;;;;9.07;8.27;;;8.80;32.30;;;;;;10335092;28;20289;-66
2023/04/10 00:28:50;;;;;;;10.10;9.20;;;8.80;32.30;;;;;;10333312;28;20844;-66
2023/04/10 00:33:55;;;;;;;8.50;7.70;;;8.70;32.20;;;;;;10336477;28;20229;-66
2023/04/10 00:38:58;;;;;;;8.43;7.60;;;8.70;32.00;;;;;;10335694;28;20219;-66
2023/04/10 00:44:01;;;;;;;8.20;7.50;;;8.60;32.00;;;;;;10335387;28;20223;-66
2023/04/10 00:49:06;;;;;;;9.07;8.17;;;8.50;32.10;;;;;;10335401;28;20223;-66
2023/04/10 00:54:10;;;;;;;8.53;7.73;;;8.40;32.40;;;;;;10335741;28;20227;-66
2023/04/10 00:59:14;;;;;;;8.33;7.53;;;8.40;32.50;;;;;;10338904;28;20246;-66
2023/04/10 01:04:18;;;;;;;8.97;8.17;;;8.40;32.40;;;;;;10336248;28;20254;-66
2023/04/10 01:09:32;;;;;;;7.50;6.80;;;8.30;32.50;;;;;;10332117;28;20238;-67
2023/04/10 01:14:46;;;;;;;7.47;6.73;;;8.30;32.50;;;;;;10333176;28;20590;-66
2023/04/10 01:20:02;;;;;;;6.63;6.03;;;8.30;32.70;;;;;;10335113;28;20612;-66
2023/04/10 01:25:21;;;;;;;7.10;6.50;;;8.30;32.80;;;;;;10339165;28;20316;-67
2023/04/10 01:30:28;;;;;;;6.70;6.10;;;8.30;32.80;;;;;;10331288;28;22481;-66
2023/04/10 01:35:33;;;;;;;7.43;6.73;;;8.20;32.50;;;;;;10337639;28;20245;-66
2023/04/10 01:40:41;;;;;;;8.20;7.50;;;8.20;32.40;;;;;;10330307;28;20225;-66
2023/04/10 01:45:48;;;;;;;6.20;5.60;;;8.20;32.40;;;;;;10331213;28;20886;-66
2023/04/10 01:50:52;;;;;;;6.13;5.63;;;8.20;32.40;;;;;;10334388;28;20227;-67
2023/04/10 01:55:56;;;;;;;7.43;6.60;;;8.10;33.00;;;;;;10336178;28;20234;-67
2023/04/10 02:01:00;;;;;;;6.53;5.93;;;8.10;32.30;;;;;;10335574;28;20733;-67
2023/04/10 02:06:14;;;;;;;6.97;6.27;;;8.00;32.50;;;;;;10328851;28;20246;-67
2023/04/10 02:11:25;;;;;;;6.27;5.67;;;8.00;32.70;;;;;;10330101;28;20235;-67
2023/04/10 02:16:30;;;;;;;6.93;6.23;;;8.00;32.70;;;;;;10327544;28;20230;-67
2023/04/10 02:21:34;;;;;;;8.23;7.53;;;8.00;32.60;;;;;;10329839;28;20308;-66
2023/04/10 02:26:47;;;;;;;8.77;7.97;;;8.00;32.50;;;;;;10337172;28;20710;-66
2023/04/10 02:31:52;;;;;;;8.20;7.50;;;7.90;32.50;;;;;;10333876;28;20227;-66
2023/04/10 02:36:55;;;;;;;8.50;7.70;;;7.90;32.10;;;;;;10330401;28;20222;-66
2023/04/10 02:41:58;;;;;;;8.73;7.93;;;7.80;31.80;;;;;;10332300;28;20222;-66
2023/04/10 02:47:02;;;;;;;7.03;6.43;;;7.60;31.90;;;;;;10328791;28;20222;-66
2023/04/10 02:52:06;;;;;;;8.67;7.77;;;7.50;32.30;;;;;;10335612;28;20906;-66
2023/04/10 02:57:09;;;;;;;6.93;6.33;;;7.40;32.40;;;;;;10340997;28;20233;-66
2023/04/10 03:02:13;;;;;;;8.10;7.40;;;7.30;32.50;;;;;;10342589;28;20226;-67
2023/04/10 03:07:16;;;;;;;6.87;6.27;;;7.20;32.50;;;;;;10338268;28;20231;-66
2023/04/10 03:12:20;;;;;;;7.53;6.83;;;7.20;32.50;;;;;;10340160;28;20646;-66
2023/04/10 03:17:24;;;;;;;7.03;6.43;;;7.10;32.50;;;;;;10337813;28;20239;-67
2023/04/10 03:22:31;;;;;;;7.57;6.87;;;7.10;32.70;;;;;;10337185;28;20227;-66
2023/04/10 03:27:34;;;;;;;8.00;7.10;;;7.10;32.50;;;;;;10338526;28;20227;-66
2023/04/10 03:32:41;;;;;;;7.87;7.17;;;7.00;32.50;;;;;;10334244;28;20245;-66
2023/04/10 03:37:44;;;;;;;6.87;6.27;;;7.00;32.90;;;;;;10337581;28;20250;-66
2023/04/10 03:42:47;;;;;;;6.20;5.67;;;7.00;32.70;;;;;;10335314;28;20227;-66
2023/04/10 03:47:52;;;;;;;7.00;6.30;;;7.00;32.80;;;;;;10341247;28;20719;-66
2023/04/10 03:52:55;;;;;;;5.63;5.13;;;7.00;33.00;;;;;;10336378;28;20601;-66
2023/04/10 03:57:58;;;;;;;7.20;6.50;;;7.00;32.70;;;;;;10335056;28;20230;-66
2023/04/10 04:03:03;;;;;;;6.43;5.83;;;7.00;32.90;;;;;;10336050;28;20223;-66
2023/04/10 04:08:07;;;;;;;7.20;6.50;;;6.90;32.80;;;;;;10334869;28;20258;-66
2023/04/10 04:13:10;;;;;;;6.37;5.77;;;6.90;32.80;;;;;;10339859;28;20231;-66
2023/04/10 04:18:14;;;;;;;6.23;5.63;;;6.90;32.70;;;;;;10341222;28;20706;-66
2023/04/10 04:23:17;;;;;;;7.60;6.90;;;6.90;32.90;;;;;;10334533;28;20230;-66
2023/04/10 04:28:20;;;;;;;8.30;7.50;;;6.80;32.90;;;;;;10338931;28;20231;-66
2023/04/10 04:33:25;;;;;;;6.70;6.10;;;6.80;32.90;;;;;;10333611;28;20245;-66
2023/04/10 04:38:28;;;;;;;6.73;6.03;;;6.80;33.00;;;;;;10334086;28;20226;-66
2023/04/10 04:43:31;;;;;;;6.80;6.20;;;6.80;33.00;;;;;;10330343;28;20222;-66
2023/04/10 04:48:36;;;;;;;7.10;6.40;;;6.70;32.80;;;;;;10332287;28;20233;-66
2023/04/10 04:53:39;;;;;;;8.03;7.23;;;6.70;33.10;;;;;;10335358;28;20230;-66
2023/04/10 04:58:42;;;;;;;8.13;7.33;;;6.70;32.80;;;;;;10332431;28;20227;-66
2023/04/10 05:03:46;;;;;;;6.53;5.93;;;6.60;32.70;;;;;;10338729;28;20226;-66
2023/04/10 05:08:51;;;;;;;8.53;7.73;;;6.60;33.00;;;;;;10331680;28;20246;-66
2023/04/10 05:13:55;;;;;;;7.40;6.73;;;6.50;33.00;;;;;;10338508;28;20238;-65
2023/04/10 05:19:00;;;;;;;7.70;7.00;;;6.50;33.20;;;;;;10333321;28;20223;-65
2023/04/10 05:24:03;;;;;;;6.63;6.03;;;6.50;33.40;;;;;;10329553;28;20695;-66
2023/04/10 05:29:06;;;;;;;7.10;6.50;;;6.50;33.40;;;;;;10332955;28;20229;-65
2023/04/10 05:34:11;;;;;;;7.03;6.03;;;6.50;33.60;;;;;;10334822;28;20233;-65
2023/04/10 05:39:15;;;;;;;9.23;8.43;;;6.50;33.80;;;;;;10330540;28;20235;-68
2023/04/10 05:44:18;;;;;;;7.87;7.17;;;6.50;33.80;;;;;;10330537;28;20256;-67
2023/04/10 05:49:23;;;;;;;10.00;9.03;;;6.50;33.80;;;;;;10330101;28;20238;-68
2023/04/10 05:54:26;;;;;;;8.50;7.70;;;6.60;34.10;;;;;;10329415;28;20727;-68
2023/04/10 05:59:29;;;;;;;10.57;9.17;;;6.60;34.00;;;;;;10332761;28;20242;-68
2023/04/10 06:04:33;;;;;;;7.70;7.00;;;6.60;34.20;;;;;;10330902;28;20231;-67
2023/04/10 06:09:37;;;;;;;9.47;8.57;;;6.80;34.50;;;;;;10335734;28;20229;-68
2023/04/10 06:14:40;;;;;;;9.97;8.97;;;6.80;34.60;;;;;;10328997;28;20226;-65
2023/04/10 06:19:44;;;;;;;10.47;9.47;;;6.80;34.60;;;;;;10334879;28;20593;-65
2023/04/10 06:24:47;;;;;;;10.47;9.57;;;6.90;35.10;;;;;;10334703;28;20234;-65
2023/04/10 06:29:50;;;;;;;9.97;9.03;;;7.00;34.90;;;;;;10343444;28;20230;-65
2023/04/10 06:34:55;;;;;;;10.53;9.53;;;7.00;35.10;;;;;;10339920;28;20227;-65
2023/04/10 06:40:05;;;;;;;12.47;10.77;;;7.10;35.50;;;;;;10338290;28;20225;-66
2023/04/10 06:45:09;;;;;;;11.20;10.10;;;7.20;36.50;;;;;;10334799;28;20231;-69
2023/04/10 06:50:14;;;;;;;11.10;10.07;;;7.20;35.70;;;;;;10334948;28;20317;-70
2023/04/10 06:55:17;;;;;;;13.10;11.83;;;7.30;36.00;;;;;;10337832;28;20928;-70
2023/04/10 07:00:20;;;;;;;12.20;11.00;;;7.40;36.00;;;;;;10338494;28;20718;-70
2023/04/10 07:05:25;;;;;;;13.03;11.70;;;7.60;36.20;;;;;;10342097;28;20255;-70
2023/04/10 07:10:29;;;;;;;13.70;11.97;;;7.70;36.70;;;;;;10337826;28;20234;-70
2023/04/10 07:15:32;;;;;;;11.37;10.27;;;7.80;36.90;;;;;;10338370;28;20277;-70
2023/04/10 07:20:37;;;;;;;13.13;11.87;;;8.00;37.00;;;;;;10340571;28;20994;-70
2023/04/10 07:25:42;;;;;;;13.03;11.73;;;8.20;37.60;;;;;;10336694;28;20237;-70
2023/04/10 07:30:45;;;;;;;13.20;11.90;;;8.50;38.10;;;;;;10341550;28;20230;-70
2023/04/10 07:35:50;;;;;;;13.70;12.40;;;8.70;37.90;;;;;;10338665;28;20226;-71
2023/04/10 07:40:56;;;;;;;12.17;10.97;;;9.00;38.40;;;;;;10333226;28;20224;-70
2023/04/10 07:45:59;;;;;;;12.30;11.20;;;9.40;38.70;;;;;;10339833;28;20241;-71
2023/04/10 07:51:07;;;;;;;11.40;10.30;;;9.80;38.20;;;;;;10338631;28;20226;-70
2023/04/10 07:56:17;;;;;;;11.87;10.77;;;10.20;37.20;;;;;;10340959;28;20571;-66
2023/04/10 08:01:20;;;;;;;11.93;10.83;;;10.70;37.00;;;;;;10335525;28;20231;-66
2023/04/10 08:06:24;;;;;;;12.20;11.03;;;11.10;36.50;;;;;;10339925;28;20313;-66
2023/04/10 08:11:30;;;;;;;10.27;9.37;;;11.40;36.40;;;;;;10336248;28;20235;-65
2023/04/10 08:16:34;;;;;;;11.97;10.77;;;11.70;36.00;;;;;;10338161;28;20476;-66
2023/04/10 08:21:39;;;;;;;10.70;9.70;;;12.00;35.60;;;;;;10334491;28;20231;-66
2023/04/10 08:26:42;;;;;;;10.47;9.57;;;12.30;35.70;;;;;;10332593;28;20231;-66
2023/04/10 08:31:45;;;;;;;10.80;9.80;;;12.50;35.30;;;;;;10334156;28;20226;-66
2023/04/10 08:36:49;;;;;;;10.77;9.77;;;12.70;35.20;;;;;;10337371;28;20233;-65
2023/04/10 08:41:54;;;;;;;9.23;8.43;;;13.00;34.60;;;;;;10329036;28;20230;-71
2023/04/10 08:46:59;;;;;;;8.53;7.83;;;13.20;34.60;;;;;;10336657;28;20223;-71
2023/04/10 08:52:07;;;;;;;9.07;8.27;;;13.50;34.40;;;;;;10334730;28;20222;-66
2023/04/10 08:57:16;;;;;;;8.80;7.90;;;13.60;33.60;;;;;;10335323;28;20244;-66
2023/04/10 09:02:20;;;;;;;8.90;8.17;;;13.80;33.00;;;;;;10337506;28;20238;-66
2023/04/10 09:07:29;;;;;;;9.00;8.20;;;14.00;34.20;;;;;;10334932;28;20241;-66
2023/04/10 09:12:44;;;;;;;9.27;8.47;;;14.10;33.10;;;;;;10337760;28;20318;-66
2023/04/10 09:17:59;;;;;;;10.10;9.20;;;14.20;32.20;;;;;;10333723;28;20223;-66
2023/04/10 09:23:20;;;;;;;8.77;8.07;;;14.30;32.30;;;;;;10334478;28;20223;-66
2023/04/10 09:28:23;;;;;;;8.57;7.77;;;14.50;31.80;;;;;;10334559;28;20241;-66
2023/04/10 09:33:28;;;;;;;9.27;8.47;;;14.60;31.90;;;;;;10337540;28;20734;-66
2023/04/10 09:38:34;;;;;;;9.47;8.57;;;14.70;31.80;;;;;;10330128;28;20321;-66
2023/04/10 09:43:37;;;;;;;8.83;7.97;;;14.80;31.90;;;;;;10328224;28;20604;-66
2023/04/10 09:48:55;;;;;;;8.83;8.03;;;14.90;32.00;;;;;;10337380;28;20277;-66
2023/04/10 09:54:00;;;;;;;7.77;7.07;;;14.90;31.20;;;;;;10329484;28;20228;-66
2023/04/10 09:59:06;;;;;;;8.07;7.47;;;15.00;32.00;;;;;;10329674;28;20596;-66
2023/04/10 10:04:10;;;;;;;8.63;7.93;;;15.10;32.20;;;;;;10330665;28;20314;-66
2023/04/10 10:09:15;;;;;;;8.37;7.57;;;15.30;31.50;;;;;;10332177;28;20231;-65
2023/04/10 10:14:21;;;;;;;7.93;7.23;;;15.40;30.80;;;;;;10333470;28;20234;-65
2023/04/10 10:19:31;;;;;;;7.90;7.20;;;15.50;30.80;;;;;;10328428;28;20237;-65
2023/04/10 10:24:38;;;;;;;9.10;8.30;;;15.60;30.70;;;;;;10333222;28;20711;-65
2023/04/10 10:29:42;;;;;;;8.00;7.30;;;15.70;30.50;;;;;;10333965;28;20621;-65
2023/04/10 10:34:46;;;;;;;8.17;7.43;;;15.80;30.60;;;;;;10336903;28;20229;-65
2023/04/10 10:39:59;;;;;;;8.73;7.93;;;15.90;30.70;;;;;;10328780;28;20227;-66
2023/04/10 10:45:11;;;;;;;7.97;7.27;;;16.00;29.80;;;;;;10330074;28;20223;-66
2023/04/10 10:50:14;;;;;;;7.63;6.93;;;16.00;29.60;;;;;;10332680;28;20245;-66
2023/04/10 10:55:37;;;;;;;8.17;7.47;;;16.10;30.70;;;;;;10332967;28;20238;-65
2023/04/10 11:01:04;;;;;;;8.30;7.60;;;16.20;29.70;;;;;;10328979;28;20951;-65
2023/04/10 11:06:12;;;;;;;7.87;7.17;;;16.30;29.10;;;;;;10328339;28;20231;-66
2023/04/10 11:11:18;;;;;;;7.47;6.87;;;16.30;29.90;;;;;;10332265;28;20234;-66
2023/04/10 11:16:23;;;;;;;7.77;7.10;;;16.30;29.20;;;;;;10335691;28;20238;-66
2023/04/10 11:21:27;;;;;;;7.33;6.73;;;16.40;29.70;;;;;;10340540;28;20223;-66
2023/04/10 11:26:40;;;;;;;7.17;6.57;;;16.40;29.30;;;;;;10336336;28;20603;-66
2023/04/10 11:31:44;;;;;;;6.10;5.60;;;16.50;27.90;;;;;;10339787;28;20227;-66
2023/04/10 11:36:47;;;;;;;6.63;6.13;;;16.50;28.50;;;;;;10336096;28;20318;-66
2023/04/10 11:41:54;;;;;;;5.80;5.40;;;16.50;28.60;;;;;;10337634;28;20609;-65
2023/04/10 11:46:57;;;;;;;5.70;5.30;;;16.60;28.00;;;;;;10339684;28;20230;-66
2023/04/10 11:52:01;;;;;;;6.37;5.87;;;16.80;28.60;;;;;;10338328;28;20235;-66
2023/04/10 11:57:08;;;;;;;6.60;6.00;;;16.80;28.20;;;;;;10339924;28;20231;-66
2023/04/10 12:02:13;;;;;;;6.10;5.70;;;16.90;27.70;;;;;;10333953;28;20234;-66
2023/04/10 12:07:17;;;;;;;6.07;5.57;;;16.90;27.90;;;;;;10338663;28;20284;-66
2023/04/10 12:12:35;;;;;;;5.53;5.03;;;17.00;27.90;;;;;;10343977;28;20230;-65
2023/04/10 12:17:38;;;;;;;4.60;4.30;;;17.00;26.30;;;;;;10338900;28;20226;-65
2023/04/10 12:22:42;;;;;;;4.80;4.40;;;17.10;27.50;;;;;;10333531;28;20281;-65
2023/04/10 12:27:50;;;;;;;4.87;4.57;;;17.10;26.70;;;;;;10336246;28;20231;-65
2023/04/10 12:32:54;;;;;;;4.30;4.00;;;17.10;26.10;;;;;;10337006;28;20635;-66
2023/04/10 12:37:57;;;;;;;4.30;4.00;;;17.20;27.20;;;;;;10336765;28;20233;-65
2023/04/10 12:43:01;;;;;;;5.47;4.50;;;17.30;27.80;;;;;;10335157;28;20219;-65
2023/04/10 12:48:04;;;;;;;5.00;4.60;;;17.40;27.40;;;;;;10333681;28;20223;-65
2023/04/10 12:53:08;;;;;;;5.27;4.87;;;17.50;27.30;;;;;;10337600;28;20266;-64
2023/04/10 12:58:20;;;;;;;4.97;4.57;;;17.60;27.10;;;;;;10336398;28;20234;-64
2023/04/10 13:03:23;;;;;;;4.60;4.30;;;17.60;25.90;;;;;;10332540;28;20226;-64
2023/04/10 13:08:27;;;;;;;4.70;4.40;;;17.70;26.80;;;;;;10334753;28;20240;-64
2023/04/10 13:13:32;;;;;;;4.47;4.17;;;17.80;26.70;;;;;;10330274;28;20747;-64
2023/04/10 13:18:35;;;;;;;4.20;3.90;;;17.90;26.00;;;;;;10332521;28;20591;-73
2023/04/10 13:23:38;;;;;;;4.40;4.10;;;17.90;26.30;;;;;;10336560;28;20227;-72
2023/04/10 13:28:43;;;;;;;4.60;4.30;;;18.00;25.90;;;;;;10331541;28;20616;-73
2023/04/10 13:33:47;;;;;;;4.13;3.83;;;18.00;25.70;;;;;;10334612;28;20238;-72
2023/04/10 13:38:50;;;;;;;4.47;4.10;;;18.00;25.60;;;;;;10333893;28;20273;-73
2023/04/10 13:43:55;;;;;;;4.10;3.80;;;18.00;25.70;;;;;;10333459;28;20234;-72
2023/04/10 13:48:59;;;;;;;4.13;3.83;;;18.00;24.70;;;;;;10328216;28;20594;-73
2023/04/10 13:54:03;;;;;;;4.00;3.70;;;18.10;25.60;;;;;;10331322;28;20222;-72
2023/04/10 13:59:08;;;;;;;4.63;4.23;;;18.10;25.20;;;;;;10330482;28;20226;-73
2023/04/10 14:04:11;;;;;;;4.33;4.03;;;18.10;24.70;;;;;;10332086;28;20234;-73
2023/04/10 14:09:14;;;;;;;4.13;3.83;;;18.10;25.30;;;;;;10330239;28;20362;-73
2023/04/10 14:14:19;;;;;;;5.00;3.87;;;18.10;24.80;;;;;;10333781;28;20264;-72
2023/04/10 14:19:22;;;;;;;3.90;3.60;;;18.00;24.20;;;;;;10331765;28;20239;-73
2023/04/10 14:24:25;;;;;;;3.97;3.67;;;17.90;24.60;;;;;;10337348;28;20232;-72
2023/04/10 14:29:30;;;;;;;4.20;3.90;;;17.90;24.50;;;;;;10333949;28;20230;-72
2023/04/10 14:34:42;;;;;;;4.07;3.77;;;17.90;23.90;;;;;;10332634;28;20321;-72
2023/04/10 14:39:45;;;;;;;4.13;3.83;;;17.80;24.50;;;;;;10330007;28;20600;-72
2023/04/10 14:44:50;;;;;;;4.00;3.70;;;17.90;24.50;;;;;;10334131;28;20782;-72
2023/04/10 14:49:53;;;;;;;4.20;3.90;;;17.90;24.10;;;;;;10339598;28;20218;-72
2023/04/10 14:54:56;;;;;;;4.10;3.80;;;17.90;24.40;;;;;;10340303;28;20226;-72
2023/04/10 15:00:00;;;;;;;3.37;3.17;;;18.00;24.40;;;;;;10337565;28;20245;-71
2023/04/10 15:05:07;;;;;;;3.40;3.20;;;18.00;24.00;;;;;;10336602;28;20230;-72
2023/04/10 15:10:11;;;;;;;4.10;3.80;;;18.10;24.10;;;;;;10342140;28;20235;-73
2023/04/10 15:15:15;;;;;;;4.00;3.70;;;18.10;24.00;;;;;;10335554;28;20230;-66
2023/04/10 15:20:18;;;;;;;4.13;3.83;;;18.10;24.10;;;;;;10339369;28;20234;-65
2023/04/10 15:25:21;;;;;;;4.17;3.87;;;18.10;24.00;;;;;;10335752;28;20973;-65
2023/04/10 15:30:26;;;;;;;4.37;4.07;;;18.10;24.00;;;;;;10332395;28;20230;-65
2023/04/10 15:35:33;;;;;;;3.77;3.47;;;18.10;24.00;;;;;;10336836;28;20733;-64
2023/04/10 15:40:36;;;;;;;4.13;3.83;;;18.10;24.00;;;;;;10336920;28;20272;-63
2023/04/10 15:45:40;;;;;;;4.07;3.77;;;18.10;24.00;;;;;;10331705;28;20227;-65
2023/04/10 15:50:43;;;;;;;3.83;3.53;;;18.10;24.00;;;;;;10339654;28;20268;-65
2023/04/10 15:55:46;;;;;;;4.07;3.77;;;18.10;24.00;;;;;;10334525;28;20630;-65
2023/04/10 16:00:51;;;;;;;4.23;3.93;;;18.20;24.10;;;;;;10336782;28;20275;-65
2023/04/10 16:05:55;;;;;;;3.90;3.60;;;18.10;23.60;;;;;;10336180;28;20226;-65
2023/04/10 16:10:59;;;;;;;4.20;3.87;;;18.00;24.00;;;;;;10333976;28;20219;-65
2023/04/10 16:16:04;;;;;;;3.80;3.50;;;17.90;23.90;;;;;;10334589;28;20223;-68
2023/04/10 16:21:08;;;;;;;3.73;3.47;;;17.80;23.90;;;;;;10336085;28;20231;-67
2023/04/10 16:26:11;;;;;;;4.00;3.70;;;17.70;23.80;;;;;;10336418;28;20234;-67
2023/04/10 16:31:16;;;;;;;4.20;3.90;;;17.70;23.80;;;;;;10338389;28;20260;-67
2023/04/10 16:36:19;;;;;;;4.20;3.90;;;17.60;23.70;;;;;;10333627;28;20246;-66
2023/04/10 16:41:22;;;;;;;4.40;4.00;;;17.60;23.70;;;;;;10336555;28;20235;-67
2023/04/10 16:46:26;;;;;;;4.30;4.00;;;17.50;23.80;;;;;;10335996;28;20238;-67
2023/04/10 16:51:29;;;;;;;4.40;4.00;;;17.50;23.60;;;;;;10335174;28;20612;-67
2023/04/10 16:56:33;;;;;;;3.90;3.60;;;17.40;24.10;;;;;;10330953;28;20718;-67
2023/04/10 17:01:39;;;;;;;4.20;3.90;;;17.40;24.20;;;;;;10334924;28;20289;-67
2023/04/10 17:06:42;;;;;;;4.30;4.00;;;17.40;23.80;;;;;;10336587;28;20230;-67
2023/04/10 17:11:45;;;;;;;4.07;3.77;;;17.40;24.00;;;;;;10334341;28;20523;-67
2023/04/10 17:16:50;;;;;;;5.03;4.63;;;17.30;24.00;;;;;;10329757;28;20223;-67
2023/04/10 17:21:53;;;;;;;4.70;4.30;;;17.30;23.70;;;;;;10331275;28;20825;-66
2023/04/10 17:26:56;;;;;;;4.70;4.40;;;17.30;24.00;;;;;;10329880;28;20255;-67
2023/04/10 17:32:01;;;;;;;5.37;4.97;;;17.20;24.10;;;;;;10330988;28;20227;-66
2023/04/10 17:37:04;;;;;;;6.50;5.80;;;17.20;24.10;;;;;;10329392;28;20627;-66
2023/04/10 17:42:07;;;;;;;5.40;5.00;;;17.20;24.20;;;;;;10330568;28;20227;-66
2023/04/10 17:47:11;;;;;;;4.63;4.33;;;17.10;24.20;;;;;;10329406;28;20270;-66
2023/04/10 17:52:14;;;;;;;4.83;4.43;;;17.20;24.20;;;;;;10330151;28;20743;-66
2023/04/10 17:57:18;;;;;;;4.33;3.93;;;17.10;24.20;;;;;;10327880;28;20235;-66
2023/04/10 18:02:22;;;;;;;4.10;3.80;;;17.00;24.30;;;;;;10330228;28;20746;-65
2023/04/10 18:07:25;;;;;;;5.00;4.60;;;17.00;24.40;;;;;;10330198;28;20234;-66
2023/04/10 18:12:28;;;;;;;5.20;4.80;;;17.00;24.60;;;;;;10335851;28;20610;-66
2023/04/10 18:17:33;;;;;;;5.10;4.70;;;17.00;24.70;;;;;;10334523;28;20230;-66
2023/04/10 18:22:36;;;;;;;4.67;4.27;;;17.00;24.50;;;;;;10332452;28;20322;-66
2023/04/10 18:27:41;;;;;;;4.10;3.80;;;17.00;24.60;;;;;;10328989;28;20611;-66
2023/04/10 18:32:58;;;;;;;4.53;4.23;;;16.90;25.00;;;;;;10335366;28;20240;-66
2023/04/10 18:38:02;;;;;;;4.90;4.50;;;17.00;25.10;;;;;;10329534;28;20733;-68
2023/04/10 18:43:05;;;;;;;5.20;4.80;;;16.90;24.50;;;;;;10334244;28;20288;-66
2023/04/10 18:48:09;;;;;;;5.50;5.00;;;16.80;24.40;;;;;;10328955;28;20238;-66
2023/04/10 18:53:12;;;;;;;4.93;4.57;;;16.70;24.40;;;;;;10332041;28;20230;-66
2023/04/10 18:58:16;;;;;;;5.20;4.80;;;16.60;24.50;;;;;;10331307;28;20238;-66
2023/04/10 19:03:20;;;;;;;6.37;5.87;;;16.60;24.60;;;;;;10331739;28;20257;-66
2023/04/10 19:08:23;;;;;;;7.50;6.90;;;16.50;24.60;;;;;;10333098;28;20928;-65
2023/04/10 19:13:27;;;;;;;5.77;5.27;;;16.40;24.60;;;;;;10334206;28;20277;-66
2023/04/10 19:18:31;;;;;;;6.60;6.00;;;16.40;24.70;;;;;;10329509;28;20238;-66
2023/04/10 19:23:34;;;;;;;5.90;5.50;;;16.30;24.70;;;;;;10327588;28;20285;-65
2023/04/10 19:28:38;;;;;;;5.77;5.27;;;16.20;24.70;;;;;;10331727;28;20235;-66
2023/04/10 19:33:42;;;;;;;5.37;4.97;;;16.10;24.70;;;;;;10336867;28;20226;-66
2023/04/10 19:38:49;;;;;;;6.40;5.80;;;16.00;24.70;;;;;;10338855;28;20235;-66
2023/04/10 19:43:52;;;;;;;6.20;5.70;;;15.90;24.70;;;;;;10338361;28;20231;-66
2023/04/10 19:48:57;;;;;;;6.50;5.90;;;15.80;24.80;;;;;;10341984;28;20883;-66
2023/04/10 19:54:00;;;;;;;6.80;6.10;;;15.70;24.80;;;;;;10336111;28;20258;-66
2023/04/10 19:59:03;;;;;;;6.50;5.97;;;15.60;24.90;;;;;;10336905;28;20686;-65
2023/04/10 20:04:08;;;;;;;11.60;8.63;;;15.50;25.00;;;;;;10340373;28;20230;-66
2023/04/10 20:09:11;;;;;;;8.00;7.20;;;15.40;25.00;;;;;;10334738;28;20305;-66
2023/04/10 20:14:14;;;;;;;7.30;6.60;;;15.40;25.00;;;;;;10335332;28;20637;-65
2023/04/10 20:19:19;;;;;;;6.93;6.23;;;15.30;25.10;;;;;;10340447;28;20597;-65
2023/04/10 20:24:22;;;;;;;5.77;5.27;;;15.10;25.20;;;;;;10333854;28;20261;-65
2023/04/10 20:29:26;;;;;;;6.07;5.47;;;15.10;25.30;;;;;;10330698;28;20237;-66
2023/04/10 20:34:31;;;;;;;6.00;5.40;;;15.00;25.40;;;;;;10330770;28;20227;-65
2023/04/10 20:39:36;;;;;;;6.47;5.97;;;14.90;25.40;;;;;;10330556;28;20241;-65
2023/04/10 20:44:39;;;;;;;7.00;6.40;;;14.90;25.40;;;;;;10331530;28;20718;-65
2023/04/10 20:49:44;;;;;;;6.70;6.10;;;14.80;25.40;;;;;;10325653;28;20249;-66
2023/04/10 20:54:47;;;;;;;6.03;5.53;;;14.70;25.60;;;;;;10326288;28;20740;-66
2023/04/10 20:59:50;;;;;;;6.30;5.80;;;14.70;25.60;;;;;;10325795;28;20230;-66
2023/04/10 21:04:54;;;;;;;6.30;5.70;;;14.60;25.70;;;;;;10322595;28;20245;-66
2023/04/10 21:09:58;;;;;;;6.77;6.17;;;14.60;25.90;;;;;;10324674;28;20230;-66
2023/04/10 21:15:01;;;;;;;6.60;6.00;;;14.60;25.90;;;;;;10325548;28;20227;-66
2023/04/10 21:20:06;;;;;;;6.60;6.00;;;14.50;25.80;;;;;;10324458;28;20223;-66
2023/04/10 21:25:11;;;;;;;6.33;5.83;;;14.40;26.00;;;;;;10320776;28;20250;-65
2023/04/10 21:30:14;;;;;;;7.00;6.40;;;14.40;26.00;;;;;;10325786;28;20594;-65
2023/04/10 21:35:19;;;;;;;8.23;7.53;;;14.30;26.00;;;;;;10326446;28;20227;-65
2023/04/10 21:40:22;;;;;;;7.57;6.93;;;14.20;26.20;;;;;;10326875;28;20231;-66
2023/04/10 21:45:25;;;;;;;7.93;7.20;;;14.10;26.10;;;;;;10327266;28;20271;-65
2023/04/10 21:50:30;;;;;;;7.57;6.87;;;14.00;26.20;;;;;;10330725;28;20571;-66
2023/04/10 21:55:33;;;;;;;6.77;6.17;;;13.90;26.50;;;;;;10329088;28;20230;-65
2023/04/10 22:00:36;;;;;;;7.20;6.60;;;13.80;26.40;;;;;;10331913;28;20227;-66
2023/04/10 22:05:41;;;;;;;6.73;6.13;;;13.70;26.70;;;;;;10331109;28;20798;-66
2023/04/10 22:10:46;;;;;;;7.20;6.60;;;13.60;26.90;;;;;;10332678;28;20226;-66
2023/04/10 22:15:49;;;;;;;7.80;7.10;;;13.60;26.80;;;;;;10334872;28;20227;-66
2023/04/10 22:20:53;;;;;;;7.97;7.20;;;13.60;26.90;;;;;;10327618;28;20958;-66
2023/04/10 22:25:59;;;;;;;7.13;6.53;;;13.60;27.00;;;;;;10331912;28;20242;-66
2023/04/10 22:31:02;;;;;;;7.00;6.30;;;13.60;27.10;;;;;;10336950;28;20222;-66
2023/04/10 22:36:08;;;;;;;7.63;6.93;;;13.60;26.90;;;;;;10330054;28;20322;-66
2023/04/10 22:41:11;;;;;;;7.43;6.73;;;13.60;27.10;;;;;;10333427;28;20218;-66
2023/04/10 22:46:14;;;;;;;7.13;6.53;;;13.60;26.90;;;;;;10330680;28;20234;-65
2023/04/10 22:51:19;;;;;;;7.10;6.50;;;13.60;27.10;;;;;;10326731;28;20231;-66
2023/04/10 22:56:25;;;;;;;7.60;6.90;;;13.50;27.20;;;;;;10328916;28;20250;-66
2023/04/10 23:01:28;;;;;;;7.67;7.07;;;13.40;27.10;;;;;;10331923;28;20317;-66
2023/04/10 23:06:35;;;;;;;7.07;6.47;;;13.40;27.10;;;;;;10332057;28;20230;-66
2023/04/10 23:11:39;;;;;;;6.73;6.13;;;13.30;27.30;;;;;;10336938;28;20232;-66
2023/04/10 23:16:44;;;;;;;7.10;6.43;;;13.30;27.30;;;;;;10337647;28;20239;-66
2023/04/10 23:21:49;;;;;;;7.17;6.47;;;13.20;27.40;;;;;;10339623;28;20239;-65
2023/04/10 23:26:52;;;;;;;7.13;6.43;;;13.10;27.60;;;;;;10334948;28;20230;-66
2023/04/10 23:31:55;;;;;;;6.83;6.23;;;13.10;27.50;;;;;;10334683;28;20242;-66
2023/04/10 23:37:00;;;;;;;6.67;6.07;;;13.00;27.50;;;;;;10337403;28;20234;-65
2023/04/10 23:42:03;;;;;;;6.63;6.07;;;13.00;27.80;;;;;;10338710;28;20241;-66
2023/04/10 23:47:06;;;;;;;6.90;6.30;;;13.00;27.70;;;;;;10338328;28;20234;-66
2023/04/10 23:52:11;;;;;;;7.20;6.60;;;12.90;27.80;;;;;;10340101;28;20446;-66
2023/04/10 23:57:14;;;;;;;6.27;5.67;;;12.90;28.00;;;;;;10336530;28;20234;-66
